7TS1 weather

Cowden Heliport
Saginaw, Texas, United States

Public forecast

Using degrees Fahrenheit for public forecast. Weather courtesy of forecast.io.

METAR (pilot weather report)

Closest report is Fort Worth Meacham International Airport, 3.1 nm (5.8 km) SSE. Retrieved 2019/07/17 23:53 UTC (12 minutes ago):

KFTW 172353Z 15013G22KT 10SM FEW065 34/21 A2992 RMK AO2 SLP121 T03390206 10350 20322 58016

TAF (pilot weather forecast)

Forecast is more than 12 hours old.

Closest forecast is Fort Worth Meacham International Airport, 3.1 nm (5.8 km) SSE. Retrieved 2019/07/17 00:27 UTC (24 hours ago):

TAF KFTW 172325Z 1800/1824 17013KT P6SM SCT050